This is the latest recevied weather packets stored in our database for station/object GW1490. If no packets are shown the sender has not sent any weather packets the latest 10 day(s).
| Time | Temp. | Humidity | Pressure | Rain* | Wind** | Luminosity | Snow |
|---|---|---|---|---|---|---|---|
| 1777868671 | 9.44° C | 94% | 996.9 hPa | 0.51 mm | - | - | - |
| 1777867605 | 10.56° C | 87% | 996.9 hPa | 0.25 mm | - | - | - |
| 1777865773 | 11.11° C | 76% | 996.6 hPa | 0 mm | - | - | - |
| 1777865436 | 11.67° C | 73% | 997.2 hPa | 0 mm | - | - | - |
| 1777863254 | 11.67° C | 72% | 996.9 hPa | 0 mm | - | - | - |
| 1777862540 | 11.67° C | 75% | 996.9 hPa | 0 mm | - | - | - |
| 1777861827 | 11.11° C | 71% | 996.9 hPa | 0 mm | - | - | - |
| 1777861114 | 11.67° C | 70% | 996.9 hPa | 0 mm | - | - | - |
| 1777860380 | 11.67° C | 71% | 996.6 hPa | 0 mm | - | - | - |
| 1777857134 | 12.78° C | 67% | 996.6 hPa | 0 mm | - | - | - |
| 1777856079 | 12.78° C | 63% | 996.6 hPa | 0 mm | - | - | - |
| 1777849972 | 16.11° C | 37% | 996.6 hPa | 0 mm | - | - | - |
| 1777848143 | 16.67° C | 37% | 997.2 hPa | 0 mm | - | - | - |
| 1777836981 | 16.67° C | 36% | 998.9 hPa | 0 mm | - | - | - |
| 1777836644 | 16.67° C | 38% | 998.9 hPa | 0 mm | - | - | - |
| 1777832334 | 15.56° C | 38% | 1000 hPa | 0 mm | - | - | - |
| 1777830500 | 15.56° C | 38% | 1000.6 hPa | 0 mm | - | - | - |
| 1777824410 | 13.33° C | 46% | 1002 hPa | 0 mm | - | - | - |
| 1777823677 | 12.78° C | 49% | 1002 hPa | 0 mm | - | - | - |
| 1777821138 | 11.67° C | 53% | 1002.7 hPa | 0 mm | - | - | - |
| 1777820790 | 12.22° C | 48% | 1002.3 hPa | 0 mm | - | - | - |
| 1777820078 | 11.67° C | 51% | 1002.3 hPa | 0 mm | - | - | - |
| 1777818641 | 10.56° C | 52% | 1002.3 hPa | 0 mm | - | - | - |
| 1777816828 | 10° C | 62% | 1002.7 hPa | 0 mm | - | - | - |
| 1777808179 | 0.56° C | 99% | 1002 hPa | 0 mm | - | - | - |
* Rain since midnight (hover to see other rain measurements)
** Current wind speed in m/s (hover to see current wind gust speed)